sensor_id;sensor_type;location;lat;lon;timestamp;pressure;altitude;pressure_sealevel;temperature;humidity
59951;BME280;45812;53.540;9.774;2022-12-11T00:01:16;101246.63;;;0.03;86.66
59951;BME280;45812;53.540;9.774;2022-12-11T00:03:42;101244.94;;;0.02;87.38
59951;BME280;45812;53.540;9.774;2022-12-11T00:06:09;101244.94;;;0.02;87.20
59951;BME280;45812;53.540;9.774;2022-12-11T00:08:35;101254.50;;;0.03;86.94
59951;BME280;45812;53.540;9.774;2022-12-11T00:11:00;101247.72;;;-0.02;87.45
59951;BME280;45812;53.540;9.774;2022-12-11T00:13:26;101246.88;;;-0.02;88.03
59951;BME280;45812;53.540;9.774;2022-12-11T00:15:51;101250.31;;;-0.02;87.94
59951;BME280;45812;53.540;9.774;2022-12-11T00:18:16;101239.84;;;-0.02;88.67
59951;BME280;45812;53.540;9.774;2022-12-11T00:20:41;101238.09;;;-0.01;89.01
59951;BME280;45812;53.540;9.774;2022-12-11T00:23:07;101238.03;;;0.01;88.79
59951;BME280;45812;53.540;9.774;2022-12-11T00:25:32;101234.47;;;0.02;89.04
59951;BME280;45812;53.540;9.774;2022-12-11T00:27:57;101240.47;;;0.04;88.62
59951;BME280;45812;53.540;9.774;2022-12-11T00:30:22;101244.09;;;0.01;88.24
59951;BME280;45812;53.540;9.774;2022-12-11T00:32:50;101251.13;;;0.01;87.74
59951;BME280;45812;53.540;9.774;2022-12-11T00:35:15;101239.81;;;0.00;87.82
59951;BME280;45812;53.540;9.774;2022-12-11T00:37:40;101243.09;;;0.04;86.95
59951;BME280;45812;53.540;9.774;2022-12-11T00:40:06;101240.66;;;0.01;87.11
59951;BME280;45812;53.540;9.774;2022-12-11T00:42:32;101239.84;;;-0.02;86.58
59951;BME280;45812;53.540;9.774;2022-12-11T00:44:57;101243.31;;;-0.01;86.73
59951;BME280;45812;53.540;9.774;2022-12-11T00:47:22;101250.59;;;-0.06;86.79
59951;BME280;45812;53.540;9.774;2022-12-11T00:49:48;101239.09;;;-0.04;86.99
59951;BME280;45812;53.540;9.774;2022-12-11T00:52:13;101241.63;;;-0.02;87.32
59951;BME280;45812;53.540;9.774;2022-12-11T00:54:38;101242.66;;;-0.05;86.89
59951;BME280;45812;53.540;9.774;2022-12-11T00:57:03;101251.50;;;-0.07;86.93
59951;BME280;45812;53.540;9.774;2022-12-11T00:59:29;101244.84;;;-0.13;87.44
59951;BME280;45812;53.540;9.774;2022-12-11T01:01:54;101252.69;;;-0.13;88.55
59951;BME280;45812;53.540;9.774;2022-12-11T01:04:19;101249.16;;;-0.12;88.26
59951;BME280;45812;53.540;9.774;2022-12-11T01:06:44;101247.13;;;-0.07;88.52
59951;BME280;45812;53.540;9.774;2022-12-11T01:09:10;101250.41;;;-0.03;88.27
59951;BME280;45812;53.540;9.774;2022-12-11T01:11:53;101242.56;;;-0.03;87.43
59951;BME280;45812;53.540;9.774;2022-12-11T01:14:19;101240.97;;;-0.06;87.07
59951;BME280;45812;53.540;9.774;2022-12-11T01:16:44;101242.06;;;-0.10;87.27
59951;BME280;45812;53.540;9.774;2022-12-11T01:19:09;101246.38;;;-0.09;86.41
59951;BME280;45812;53.540;9.774;2022-12-11T01:21:35;101248.13;;;-0.09;85.92
59951;BME280;45812;53.540;9.774;2022-12-11T01:24:00;101248.13;;;-0.09;85.61
59951;BME280;45812;53.540;9.774;2022-12-11T01:26:25;101249.91;;;-0.10;86.26
59951;BME280;45812;53.540;9.774;2022-12-11T01:28:51;101243.06;;;-0.12;86.18
59951;BME280;45812;53.540;9.774;2022-12-11T01:31:18;101247.78;;;-0.19;86.06
59951;BME280;45812;53.540;9.774;2022-12-11T01:33:43;101249.63;;;-0.21;85.85
59951;BME280;45812;53.540;9.774;2022-12-11T01:36:14;101253.34;;;-0.25;85.70
59951;BME280;45812;53.540;9.774;2022-12-11T01:38:40;101247.19;;;-0.24;85.82
59951;BME280;45812;53.540;9.774;2022-12-11T01:41:05;101241.97;;;-0.24;85.75
59951;BME280;45812;53.540;9.774;2022-12-11T01:43:31;101251.06;;;-0.31;85.38
59951;BME280;45812;53.540;9.774;2022-12-11T01:45:56;101255.38;;;-0.30;86.03
59951;BME280;45812;53.540;9.774;2022-12-11T01:48:27;101248.28;;;-0.28;85.55
59951;BME280;45812;53.540;9.774;2022-12-11T01:50:55;101251.66;;;-0.26;86.68
59951;BME280;45812;53.540;9.774;2022-12-11T01:53:28;101255.03;;;-0.24;86.93
59951;BME280;45812;53.540;9.774;2022-12-11T01:55:56;101251.59;;;-0.24;86.32
59951;BME280;45812;53.540;9.774;2022-12-11T01:58:25;101248.13;;;-0.25;86.45
59951;BME280;45812;53.540;9.774;2022-12-11T02:00:52;101252.50;;;-0.25;86.09
59951;BME280;45812;53.540;9.774;2022-12-11T02:03:18;101244.75;;;-0.27;86.26
59951;BME280;45812;53.540;9.774;2022-12-11T02:05:44;101252.25;;;-0.37;85.95
59951;BME280;45812;53.540;9.774;2022-12-11T02:08:09;101254.84;;;-0.52;85.21
59951;BME280;45812;53.540;9.774;2022-12-11T02:13:25;101244.31;;;-0.68;87.11
59951;BME280;45812;53.540;9.774;2022-12-11T02:16:18;101246.41;;;-0.75;87.92
59951;BME280;45812;53.540;9.774;2022-12-11T02:18:55;101252.88;;;-0.82;87.52
59951;BME280;45812;53.540;9.774;2022-12-11T02:21:26;101252.72;;;-0.96;89.64
59951;BME280;45812;53.540;9.774;2022-12-11T02:24:06;101250.53;;;-1.04;89.72
59951;BME280;45812;53.540;9.774;2022-12-11T02:26:59;101252.97;;;-1.18;91.10
59951;BME280;45812;53.540;9.774;2022-12-11T02:29:35;101248.91;;;-1.06;90.66
59951;BME280;45812;53.540;9.774;2022-12-11T02:32:11;101244.22;;;-1.00;90.26
59951;BME280;45812;53.540;9.774;2022-12-11T02:34:45;101245.53;;;-0.91;90.14
59951;BME280;45812;53.540;9.774;2022-12-11T02:37:18;101246.97;;;-0.85;90.24
59951;BME280;45812;53.540;9.774;2022-12-11T02:39:45;101244.09;;;-0.81;90.15
59951;BME280;45812;53.540;9.774;2022-12-11T02:42:13;101242.19;;;-0.77;90.40
59951;BME280;45812;53.540;9.774;2022-12-11T02:44:40;101239.56;;;-0.77;90.92
59951;BME280;45812;53.540;9.774;2022-12-11T02:47:11;101241.91;;;-0.88;90.52
59951;BME280;45812;53.540;9.774;2022-12-11T02:49:39;101239.66;;;-0.96;89.94
59951;BME280;45812;53.540;9.774;2022-12-11T02:52:06;101235.16;;;-0.93;90.91
59951;BME280;45812;53.540;9.774;2022-12-11T02:54:35;101236.59;;;-0.87;90.83
59951;BME280;45812;53.540;9.774;2022-12-11T02:57:15;101238.03;;;-0.81;91.19
59951;BME280;45812;53.540;9.774;2022-12-11T02:59:43;101235.03;;;-0.74;90.47
59951;BME280;45812;53.540;9.774;2022-12-11T03:02:10;101232.19;;;-0.69;91.44
59951;BME280;45812;53.540;9.774;2022-12-11T03:04:36;101233.88;;;-0.68;91.24
59951;BME280;45812;53.540;9.774;2022-12-11T03:07:06;101228.41;;;-0.64;91.47
59951;BME280;45812;53.540;9.774;2022-12-11T03:09:41;101225.63;;;-0.61;90.90
59951;BME280;45812;53.540;9.774;2022-12-11T03:12:09;101221.22;;;-0.60;90.14
59951;BME280;45812;53.540;9.774;2022-12-11T03:14:36;101219.47;;;-0.59;90.38
59951;BME280;45812;53.540;9.774;2022-12-11T03:17:14;101222.06;;;-0.59;89.85
59951;BME280;45812;53.540;9.774;2022-12-11T03:19:49;101224.59;;;-0.58;89.32
59951;BME280;45812;53.540;9.774;2022-12-11T03:22:26;101236.63;;;-0.54;89.58
59951;BME280;45812;53.540;9.774;2022-12-11T03:25:10;101240.38;;;-0.59;89.35
59951;BME280;45812;53.540;9.774;2022-12-11T03:27:43;101238.25;;;-0.69;90.04
59951;BME280;45812;53.540;9.774;2022-12-11T03:30:12;101239.34;;;-0.73;90.07
59951;BME280;45812;53.540;9.774;2022-12-11T03:32:57;101239.66;;;-0.79;89.46
59951;BME280;45812;53.540;9.774;2022-12-11T03:35:59;101236.50;;;-0.85;88.51
59951;BME280;45812;53.540;9.774;2022-12-11T03:38:31;101229.22;;;-0.96;88.99
59951;BME280;45812;53.540;9.774;2022-12-11T03:41:00;101231.63;;;-0.92;89.89
59951;BME280;45812;53.540;9.774;2022-12-11T03:43:28;101227.06;;;-0.88;89.15
59951;BME280;45812;53.540;9.774;2022-12-11T03:45:57;101230.38;;;-0.84;88.84
59951;BME280;45812;53.540;9.774;2022-12-11T03:48:27;101235.34;;;-0.80;88.75
59951;BME280;45812;53.540;9.774;2022-12-11T03:50:54;101224.63;;;-0.91;88.92
59951;BME280;45812;53.540;9.774;2022-12-11T03:53:20;101229.69;;;-0.88;89.97
59951;BME280;45812;53.540;9.774;2022-12-11T03:55:47;101221.84;;;-0.88;88.16
59951;BME280;45812;53.540;9.774;2022-12-11T03:58:13;101236.44;;;-0.84;89.51
59951;BME280;45812;53.540;9.774;2022-12-11T04:00:38;101231.88;;;-0.80;89.35
59951;BME280;45812;53.540;9.774;2022-12-11T04:03:03;101231.63;;;-0.76;89.12
59951;BME280;45812;53.540;9.774;2022-12-11T04:05:40;101234.13;;;-0.73;89.46
59951;BME280;45812;53.540;9.774;2022-12-11T04:08:05;101234.81;;;-0.69;88.67
59951;BME280;45812;53.540;9.774;2022-12-11T04:10:31;101231.34;;;-0.70;89.30
59951;BME280;45812;53.540;9.774;2022-12-11T04:12:56;101226.19;;;-0.71;88.83
59951;BME280;45812;53.540;9.774;2022-12-11T04:15:21;101225.28;;;-0.70;88.91
59951;BME280;45812;53.540;9.774;2022-12-11T04:17:46;101223.25;;;-0.65;89.69
59951;BME280;45812;53.540;9.774;2022-12-11T04:20:30;101213.56;;;-0.63;89.04
59951;BME280;45812;53.540;9.774;2022-12-11T04:23:16;101213.72;;;-0.66;88.64
59951;BME280;45812;53.540;9.774;2022-12-11T04:26:09;101214.47;;;-0.64;87.75
59951;BME280;45812;53.540;9.774;2022-12-11T04:28:35;101216.09;;;-0.62;88.29
59951;BME280;45812;53.540;9.774;2022-12-11T04:31:01;101213.47;;;-0.62;88.29
59951;BME280;45812;53.540;9.774;2022-12-11T04:33:27;101220.72;;;-0.67;88.44
59951;BME280;45812;53.540;9.774;2022-12-11T04:35:53;101215.50;;;-0.67;88.31
59951;BME280;45812;53.540;9.774;2022-12-11T04:38:18;101225.28;;;-0.70;88.08
59951;BME280;45812;53.540;9.774;2022-12-11T04:40:43;101220.22;;;-0.73;88.33
59951;BME280;45812;53.540;9.774;2022-12-11T04:43:08;101213.22;;;-0.73;88.61
59951;BME280;45812;53.540;9.774;2022-12-11T04:45:34;101221.06;;;-0.73;88.11
59951;BME280;45812;53.540;9.774;2022-12-11T04:47:59;101223.50;;;-0.70;88.47
59951;BME280;45812;53.540;9.774;2022-12-11T04:50:24;101221.81;;;-0.71;88.43
59951;BME280;45812;53.540;9.774;2022-12-11T04:52:53;101220.88;;;-0.70;89.07
59951;BME280;45812;53.540;9.774;2022-12-11T04:55:19;101225.28;;;-0.70;88.80
59951;BME280;45812;53.540;9.774;2022-12-11T04:57:44;101214.72;;;-0.69;89.51
59951;BME280;45812;53.540;9.774;2022-12-11T05:00:11;101215.66;;;-0.70;89.14
59951;BME280;45812;53.540;9.774;2022-12-11T05:02:37;101207.81;;;-0.70;88.59
59951;BME280;45812;53.540;9.774;2022-12-11T05:05:04;101206.72;;;-0.66;88.44
59951;BME280;45812;53.540;9.774;2022-12-11T05:07:30;101205.88;;;-0.66;89.14
59951;BME280;45812;53.540;9.774;2022-12-11T05:09:55;101206.72;;;-0.66;88.91
59951;BME280;45812;53.540;9.774;2022-12-11T05:12:20;101212.72;;;-0.64;88.75
59951;BME280;45812;53.540;9.774;2022-12-11T05:14:46;101218.88;;;-0.65;89.27
59951;BME280;45812;53.540;9.774;2022-12-11T05:17:11;101216.34;;;-0.66;88.70
59951;BME280;45812;53.540;9.774;2022-12-11T05:19:36;101218.34;;;-0.71;89.01
59951;BME280;45812;53.540;9.774;2022-12-11T05:22:02;101213.50;;;-0.79;88.32
59951;BME280;45812;53.540;9.774;2022-12-11T05:24:27;101218.66;;;-0.77;88.88
59951;BME280;45812;53.540;9.774;2022-12-11T05:26:52;101223.88;;;-0.77;89.39
59951;BME280;45812;53.540;9.774;2022-12-11T05:29:17;101222.81;;;-0.73;89.23
59951;BME280;45812;53.540;9.774;2022-12-11T05:31:43;101224.59;;;-0.74;89.61
59951;BME280;45812;53.540;9.774;2022-12-11T05:34:08;101219.19;;;-0.71;89.66
59951;BME280;45812;53.540;9.774;2022-12-11T05:36:33;101229.50;;;-0.68;88.80
59951;BME280;45812;53.540;9.774;2022-12-11T05:39:00;101221.66;;;-0.68;89.19
59951;BME280;45812;53.540;9.774;2022-12-11T05:41:27;101215.38;;;-0.81;88.72
59951;BME280;45812;53.540;9.774;2022-12-11T05:43:52;101219.31;;;-0.89;88.69
59951;BME280;45812;53.540;9.774;2022-12-11T05:46:22;101220.06;;;-0.87;88.66
59951;BME280;45812;53.540;9.774;2022-12-11T05:48:50;101216.38;;;-0.83;88.99
59951;BME280;45812;53.540;9.774;2022-12-11T05:51:16;101217.38;;;-0.86;88.85
59951;BME280;45812;53.540;9.774;2022-12-11T05:53:43;101218.91;;;-0.82;89.78
59951;BME280;45812;53.540;9.774;2022-12-11T05:56:13;101215.44;;;-0.82;89.16
59951;BME280;45812;53.540;9.774;2022-12-11T05:58:40;101213.75;;;-0.83;89.37
59951;BME280;45812;53.540;9.774;2022-12-11T06:01:12;101221.69;;;-0.85;89.26
59951;BME280;45812;53.540;9.774;2022-12-11T06:03:38;101219.47;;;-0.93;87.85
59951;BME280;45812;53.540;9.774;2022-12-11T06:06:04;101219.69;;;-0.97;87.89
59951;BME280;45812;53.540;9.774;2022-12-11T06:08:30;101222.94;;;-0.92;88.29
59951;BME280;45812;53.540;9.774;2022-12-11T06:10:55;101226.31;;;-0.90;87.99
59951;BME280;45812;53.540;9.774;2022-12-11T06:13:20;101225.53;;;-0.92;88.38
59951;BME280;45812;53.540;9.774;2022-12-11T06:15:46;101225.59;;;-0.94;88.15
59951;BME280;45812;53.540;9.774;2022-12-11T06:18:11;101221.22;;;-0.93;87.40
59951;BME280;45812;53.540;9.774;2022-12-11T06:20:36;101222.09;;;-0.93;87.16
59951;BME280;45812;53.540;9.774;2022-12-11T06:23:02;101212.53;;;-0.94;86.31
59951;BME280;45812;53.540;9.774;2022-12-11T06:25:28;101217.72;;;-0.92;86.59
59951;BME280;45812;53.540;9.774;2022-12-11T06:27:53;101219.53;;;-0.94;85.60
59951;BME280;45812;53.540;9.774;2022-12-11T06:30:19;101219.47;;;-0.93;85.54
59951;BME280;45812;53.540;9.774;2022-12-11T06:32:44;101212.94;;;-1.01;84.79
59951;BME280;45812;53.540;9.774;2022-12-11T06:35:10;101213.09;;;-1.22;84.02
59951;BME280;45812;53.540;9.774;2022-12-11T06:37:36;101213.94;;;-1.38;84.76
59951;BME280;45812;53.540;9.774;2022-12-11T06:40:03;101212.16;;;-1.55;83.16
59951;BME280;45812;53.540;9.774;2022-12-11T06:42:29;101220.34;;;-1.80;85.13
59951;BME280;45812;53.540;9.774;2022-12-11T06:44:54;101221.31;;;-2.00;85.98
59951;BME280;45812;53.540;9.774;2022-12-11T06:47:21;101217.88;;;-2.19;86.35
59951;BME280;45812;53.540;9.774;2022-12-11T06:49:46;101216.88;;;-2.35;87.48
59951;BME280;45812;53.540;9.774;2022-12-11T06:52:12;101208.28;;;-2.56;88.96
59951;BME280;45812;53.540;9.774;2022-12-11T06:54:37;101210.75;;;-2.53;89.41
59951;BME280;45812;53.540;9.774;2022-12-11T06:57:02;101213.03;;;-1.91;86.17
59951;BME280;45812;53.540;9.774;2022-12-11T06:59:28;101208.16;;;-1.79;84.52
59951;BME280;45812;53.540;9.774;2022-12-11T07:01:53;101212.44;;;-1.78;84.35
59951;BME280;45812;53.540;9.774;2022-12-11T07:04:18;101215.38;;;-1.85;84.91
59951;BME280;45812;53.540;9.774;2022-12-11T07:06:43;101220.94;;;-1.92;84.95
59951;BME280;45812;53.540;9.774;2022-12-11T07:09:09;101235.81;;;-1.94;85.51
59951;BME280;45812;53.540;9.774;2022-12-11T07:11:34;101229.34;;;-2.04;85.48
59951;BME280;45812;53.540;9.774;2022-12-11T07:13:59;101234.91;;;-2.12;86.35
59951;BME280;45812;53.540;9.774;2022-12-11T07:16:25;101237.03;;;-2.20;87.25
59951;BME280;45812;53.540;9.774;2022-12-11T07:18:51;101238.44;;;-2.32;88.36
59951;BME280;45812;53.540;9.774;2022-12-11T07:21:17;101241.97;;;-2.33;88.62
59951;BME280;45812;53.540;9.774;2022-12-11T07:23:43;101249.16;;;-2.38;88.87
59951;BME280;45812;53.540;9.774;2022-12-11T07:26:11;101256.13;;;-2.38;88.13
59951;BME280;45812;53.540;9.774;2022-12-11T07:28:37;101249.28;;;-2.41;87.52
59951;BME280;45812;53.540;9.774;2022-12-11T07:31:06;101251.81;;;-2.39;87.26
59951;BME280;45812;53.540;9.774;2022-12-11T07:33:32;101245.84;;;-2.41;87.45
59951;BME280;45812;53.540;9.774;2022-12-11T07:36:01;101245.03;;;-2.44;88.37
59951;BME280;45812;53.540;9.774;2022-12-11T07:38:27;101254.69;;;-2.46;88.38
59951;BME280;45812;53.540;9.774;2022-12-11T07:40:52;101256.53;;;-2.48;88.52
59951;BME280;45812;53.540;9.774;2022-12-11T07:43:17;101261.88;;;-2.51;89.14
59951;BME280;45812;53.540;9.774;2022-12-11T07:45:43;101259.28;;;-2.51;89.03
59951;BME280;45812;53.540;9.774;2022-12-11T07:48:08;101254.91;;;-2.50;88.95
59951;BME280;45812;53.540;9.774;2022-12-11T07:50:33;101257.44;;;-2.49;89.05
59951;BME280;45812;53.540;9.774;2022-12-11T07:52:58;101246.09;;;-2.48;89.35
59951;BME280;45812;53.540;9.774;2022-12-11T07:55:23;101246.03;;;-2.46;89.71
59951;BME280;45812;53.540;9.774;2022-12-11T07:57:49;101251.09;;;-2.43;89.54
59951;BME280;45812;53.540;9.774;2022-12-11T08:00:14;101245.78;;;-2.40;90.02
59951;BME280;45812;53.540;9.774;2022-12-11T08:02:39;101252.59;;;-2.37;89.86
59951;BME280;45812;53.540;9.774;2022-12-11T08:05:05;101251.53;;;-2.33;89.99
59951;BME280;45812;53.540;9.774;2022-12-11T08:07:33;101248.66;;;-2.27;89.75
59951;BME280;45812;53.540;9.774;2022-12-11T08:09:59;101251.06;;;-2.23;89.21
59951;BME280;45812;53.540;9.774;2022-12-11T08:12:24;101242.81;;;-2.14;88.84
59951;BME280;45812;53.540;9.774;2022-12-11T08:14:50;101250.41;;;-2.09;88.79
59951;BME280;45812;53.540;9.774;2022-12-11T08:17:15;101248.50;;;-2.05;89.46
59951;BME280;45812;53.540;9.774;2022-12-11T08:19:40;101247.25;;;-1.97;88.93
59951;BME280;45812;53.540;9.774;2022-12-11T08:22:06;101247.84;;;-1.92;89.24
59951;BME280;45812;53.540;9.774;2022-12-11T08:24:31;101247.59;;;-1.86;91.75
59951;BME280;45812;53.540;9.774;2022-12-11T08:26:56;101245.38;;;-1.23;89.38
59951;BME280;45812;53.540;9.774;2022-12-11T08:29:21;101248.81;;;-0.37;86.21
59951;BME280;45812;53.540;9.774;2022-12-11T08:31:47;101245.25;;;0.43;82.62
59951;BME280;45812;53.540;9.774;2022-12-11T08:34:12;101241.81;;;1.16;77.18
59951;BME280;45812;53.540;9.774;2022-12-11T08:36:38;101240.34;;;1.69;73.74
59951;BME280;45812;53.540;9.774;2022-12-11T08:39:03;101237.28;;;2.31;69.71
59951;BME280;45812;53.540;9.774;2022-12-11T08:41:29;101230.44;;;2.55;66.79
59951;BME280;45812;53.540;9.774;2022-12-11T08:43:56;101234.75;;;2.29;65.89
59951;BME280;45812;53.540;9.774;2022-12-11T08:46:26;101237.84;;;1.95;66.66
59951;BME280;45812;53.540;9.774;2022-12-11T08:48:53;101228.59;;;1.61;66.70
59951;BME280;45812;53.540;9.774;2022-12-11T08:51:21;101236.97;;;1.39;68.67
59951;BME280;45812;53.540;9.774;2022-12-11T08:53:48;101241.50;;;1.07;69.57
59951;BME280;45812;53.540;9.774;2022-12-11T08:56:15;101243.13;;;0.79;71.17
59951;BME280;45812;53.540;9.774;2022-12-11T08:58:42;101242.59;;;0.88;70.01
59951;BME280;45812;53.540;9.774;2022-12-11T09:01:13;101241.41;;;0.94;68.50
59951;BME280;45812;53.540;9.774;2022-12-11T09:03:39;101243.56;;;1.02;67.32
59951;BME280;45812;53.540;9.774;2022-12-11T09:06:06;101238.78;;;0.94;67.54
59951;BME280;45812;53.540;9.774;2022-12-11T09:08:33;101236.16;;;0.94;68.01
59951;BME280;45812;53.540;9.774;2022-12-11T09:11:11;101239.91;;;0.74;69.07
59951;BME280;45812;53.540;9.774;2022-12-11T09:13:38;101240.22;;;0.24;70.19
59951;BME280;45812;53.540;9.774;2022-12-11T09:16:08;101240.47;;;-0.12;73.67
59951;BME280;45812;53.540;9.774;2022-12-11T09:18:35;101235.72;;;-0.06;73.77
59951;BME280;45812;53.540;9.774;2022-12-11T09:21:02;101232.25;;;-0.06;74.86
59951;BME280;45812;53.540;9.774;2022-12-11T09:23:27;101239.06;;;1.04;72.03
59951;BME280;45812;53.540;9.774;2022-12-11T09:25:53;101236.50;;;2.02;67.39
59951;BME280;45812;53.540;9.774;2022-12-11T09:28:18;101226.53;;;2.48;62.91
59951;BME280;45812;53.540;9.774;2022-12-11T09:30:44;101233.38;;;3.28;58.58
59951;BME280;45812;53.540;9.774;2022-12-11T09:33:09;101225.16;;;3.58;58.19
59951;BME280;45812;53.540;9.774;2022-12-11T09:35:34;101230.66;;;3.55;57.63
59951;BME280;45812;53.540;9.774;2022-12-11T09:38:00;101231.16;;;3.60;55.76
59951;BME280;45812;53.540;9.774;2022-12-11T09:40:25;101216.13;;;4.23;54.31
59951;BME280;45812;53.540;9.774;2022-12-11T09:42:59;101229.66;;;4.66;52.01
59951;BME280;45812;53.540;9.774;2022-12-11T09:45:27;101217.31;;;5.24;50.80
59951;BME280;45812;53.540;9.774;2022-12-11T09:47:54;101216.59;;;6.00;49.26
59951;BME280;45812;53.540;9.774;2022-12-11T09:50:27;101208.69;;;7.06;46.45
59951;BME280;45812;53.540;9.774;2022-12-11T09:53:11;101209.63;;;6.75;46.76
59951;BME280;45812;53.540;9.774;2022-12-11T09:55:59;101222.38;;;5.83;48.81
59951;BME280;45812;53.540;9.774;2022-12-11T09:58:42;101220.84;;;5.01;50.16
59951;BME280;45812;53.540;9.774;2022-12-11T10:01:25;101220.97;;;4.53;51.51
59951;BME280;45812;53.540;9.774;2022-12-11T10:07:21;101203.16;;;3.47;53.22
59951;BME280;45812;53.540;9.774;2022-12-11T10:09:53;101204.41;;;2.78;54.07
59951;BME280;45812;53.540;9.774;2022-12-11T10:12:31;101212.38;;;2.63;56.45
59951;BME280;45812;53.540;9.774;2022-12-11T10:17:46;101202.34;;;3.08;56.20
59951;BME280;45812;53.540;9.774;2022-12-11T10:22:36;101197.06;;;4.78;50.30
59951;BME280;45812;53.540;9.774;2022-12-11T10:25:04;101194.91;;;5.41;48.77
59951;BME280;45812;53.540;9.774;2022-12-11T10:27:33;101186.91;;;6.72;45.90
59951;BME280;45812;53.540;9.774;2022-12-11T10:32:58;101169.13;;;8.64;41.27
59951;BME280;45812;53.540;9.774;2022-12-11T10:35:29;101180.63;;;9.58;39.04
59951;BME280;45812;53.540;9.774;2022-12-11T10:38:03;101175.41;;;9.29;39.06
59951;BME280;45812;53.540;9.774;2022-12-11T10:40:34;101175.84;;;9.34;38.92
59951;BME280;45812;53.540;9.774;2022-12-11T10:43:00;101171.69;;;10.04;37.36
59951;BME280;45812;53.540;9.774;2022-12-11T10:45:25;101170.22;;;9.64;36.89
59951;BME280;45812;53.540;9.774;2022-12-11T10:48:00;101172.59;;;9.40;37.89
59951;BME280;45812;53.540;9.774;2022-12-11T10:50:26;101165.44;;;9.40;37.33
59951;BME280;45812;53.540;9.774;2022-12-11T10:52:52;101162.16;;;9.84;36.54
59951;BME280;45812;53.540;9.774;2022-12-11T10:55:27;101163.72;;;10.04;35.70
59951;BME280;45812;53.540;9.774;2022-12-11T10:57:57;101155.16;;;8.71;37.25
59951;BME280;45812;53.540;9.774;2022-12-11T11:00:31;101168.38;;;7.44;40.12
59951;BME280;45812;53.540;9.774;2022-12-11T11:02:57;101163.31;;;7.41;40.37
59951;BME280;45812;53.540;9.774;2022-12-11T11:05:34;101161.19;;;7.25;41.24
59951;BME280;45812;53.540;9.774;2022-12-11T11:08:11;101160.59;;;7.62;40.93
59951;BME280;45812;53.540;9.774;2022-12-11T11:10:37;101152.94;;;8.67;39.11
59951;BME280;45812;53.540;9.774;2022-12-11T11:13:02;101163.69;;;9.86;37.29
59951;BME280;45812;53.540;9.774;2022-12-11T11:15:29;101160.81;;;10.43;35.57
59951;BME280;45812;53.540;9.774;2022-12-11T11:18:09;101153.97;;;11.10;34.89
59951;BME280;45812;53.540;9.774;2022-12-11T11:20:35;101149.47;;;11.36;33.63
59951;BME280;45812;53.540;9.774;2022-12-11T11:23:07;101156.22;;;11.65;33.43
59951;BME280;45812;53.540;9.774;2022-12-11T11:25:35;101153.09;;;12.28;31.82
59951;BME280;45812;53.540;9.774;2022-12-11T11:28:03;101147.72;;;13.09;30.87
59951;BME280;45812;53.540;9.774;2022-12-11T11:30:39;101152.88;;;13.11;30.51
59951;BME280;45812;53.540;9.774;2022-12-11T11:33:19;101145.69;;;13.11;30.46
59951;BME280;45812;53.540;9.774;2022-12-11T11:35:55;101142.06;;;13.04;30.37
59951;BME280;45812;53.540;9.774;2022-12-11T11:38:24;101141.19;;;13.67;29.43
59951;BME280;45812;53.540;9.774;2022-12-11T11:41:09;101131.97;;;14.01;29.10
59951;BME280;45812;53.540;9.774;2022-12-11T11:43:43;101129.38;;;14.15;29.07
59951;BME280;45812;53.540;9.774;2022-12-11T11:46:25;101121.38;;;14.76;28.52
59951;BME280;45812;53.540;9.774;2022-12-11T11:49:02;101119.75;;;15.34;27.54
59951;BME280;45812;53.540;9.774;2022-12-11T11:51:36;101099.78;;;16.09;26.61
59951;BME280;45812;53.540;9.774;2022-12-11T11:54:19;101101.22;;;16.54;25.69
59951;BME280;45812;53.540;9.774;2022-12-11T11:56:48;101112.47;;;16.85;25.06
59951;BME280;45812;53.540;9.774;2022-12-11T11:59:25;101111.97;;;17.03;25.35
59951;BME280;45812;53.540;9.774;2022-12-11T12:01:55;101109.06;;;17.39;24.73
59951;BME280;45812;53.540;9.774;2022-12-11T12:04:21;101109.88;;;17.81;24.02
59951;BME280;45812;53.540;9.774;2022-12-11T12:12:44;101105.22;;;18.89;22.36
59951;BME280;45812;53.540;9.774;2022-12-11T12:15:43;101105.66;;;18.72;22.22
59951;BME280;45812;53.540;9.774;2022-12-11T12:18:22;101112.31;;;18.63;22.98
59951;BME280;45812;53.540;9.774;2022-12-11T12:21:04;101107.09;;;18.88;22.87
59951;BME280;45812;53.540;9.774;2022-12-11T12:26:31;101104.41;;;18.68;22.94
59951;BME280;45812;53.540;9.774;2022-12-11T12:29:19;101101.09;;;18.66;22.88
59951;BME280;45812;53.540;9.774;2022-12-11T12:31:59;101113.47;;;18.14;22.98
59951;BME280;45812;53.540;9.774;2022-12-11T12:34:56;101112.34;;;17.35;23.72
59951;BME280;45812;53.540;9.774;2022-12-11T12:40:02;101106.53;;;16.69;25.24
59951;BME280;45812;53.540;9.774;2022-12-11T12:42:52;101106.03;;;16.80;24.93
59951;BME280;45812;53.540;9.774;2022-12-11T12:45:28;101105.53;;;16.27;25.47
59951;BME280;45812;53.540;9.774;2022-12-11T12:47:54;101106.53;;;16.19;25.63
59951;BME280;45812;53.540;9.774;2022-12-11T12:50:22;101114.44;;;15.70;26.07
59951;BME280;45812;53.540;9.774;2022-12-11T12:52:49;101110.38;;;14.48;27.83
59951;BME280;45812;53.540;9.774;2022-12-11T12:55:20;101115.97;;;13.06;29.88
59951;BME280;45812;53.540;9.774;2022-12-11T12:57:50;101110.69;;;11.92;31.30
59951;BME280;45812;53.540;9.774;2022-12-11T13:00:40;101113.19;;;11.51;32.49
59951;BME280;45812;53.540;9.774;2022-12-11T13:03:15;101109.56;;;11.61;32.24
59951;BME280;45812;53.540;9.774;2022-12-11T13:05:44;101106.22;;;12.09;31.61
59951;BME280;45812;53.540;9.774;2022-12-11T13:08:10;101116.69;;;12.92;30.70
59951;BME280;45812;53.540;9.774;2022-12-11T13:10:39;101111.78;;;13.90;29.03
59951;BME280;45812;53.540;9.774;2022-12-11T13:13:28;101109.38;;;14.49;27.84
59951;BME280;45812;53.540;9.774;2022-12-11T13:18:37;101113.75;;;14.65;27.38
59951;BME280;45812;53.540;9.774;2022-12-11T13:21:25;101110.00;;;14.74;27.17
59951;BME280;45812;53.540;9.774;2022-12-11T13:23:50;101114.16;;;14.16;27.73
59951;BME280;45812;53.540;9.774;2022-12-11T13:26:27;101118.00;;;13.59;28.04
59951;BME280;45812;53.540;9.774;2022-12-11T13:28:53;101116.88;;;13.46;28.43
59951;BME280;45812;53.540;9.774;2022-12-11T13:34:01;101125.69;;;12.91;29.07